createdAt,value
2023-03-13T00:00:24.594Z,100.00
2023-03-13T00:02:50.994Z,100.00
2023-03-13T00:05:17.426Z,100.00
2023-03-13T00:07:43.736Z,100.00
2023-03-13T00:10:10.482Z,100.00
2023-03-13T00:12:36.861Z,100.00
2023-03-13T00:15:03.557Z,100.00
2023-03-13T00:17:29.927Z,100.00
2023-03-13T00:19:56.318Z,100.00
2023-03-13T00:22:22.756Z,100.00
2023-03-13T00:24:49.144Z,100.00
2023-03-13T00:27:15.550Z,100.00
2023-03-13T00:29:42.006Z,100.00
2023-03-13T00:32:08.477Z,100.00
2023-03-13T00:34:34.893Z,100.00
2023-03-13T00:37:01.364Z,100.00
2023-03-13T00:39:27.738Z,100.00
2023-03-13T00:41:54.099Z,100.00
2023-03-13T00:44:20.438Z,100.00
2023-03-13T00:46:46.756Z,100.00
2023-03-13T00:49:13.112Z,100.00
2023-03-13T00:51:39.454Z,100.00
2023-03-13T00:54:05.823Z,100.00
2023-03-13T00:56:32.225Z,100.00
2023-03-13T00:58:59.739Z,100.00
2023-03-13T01:01:29.855Z,100.00
2023-03-13T01:03:59.591Z,100.00
2023-03-13T01:06:31.274Z,100.00
2023-03-13T01:08:58.309Z,100.00
2023-03-13T01:11:30.498Z,100.00
2023-03-13T01:13:59.751Z,100.00
2023-03-13T01:16:27.594Z,100.00
2023-03-13T01:18:57.225Z,100.00
2023-03-13T01:21:24.732Z,100.00
2023-03-13T01:23:52.407Z,100.00
2023-03-13T01:26:19.613Z,100.00
2023-03-13T01:28:46.108Z,100.00
2023-03-13T01:31:15.292Z,100.00
2023-03-13T01:33:42.061Z,100.00
2023-03-13T01:36:09.167Z,100.00
2023-03-13T01:38:36.339Z,100.00
2023-03-13T01:41:03.561Z,100.00
2023-03-13T01:43:32.183Z,100.00
2023-03-13T01:46:07.381Z,100.00
2023-03-13T01:48:39.984Z,100.00
2023-03-13T01:51:13.871Z,100.00
2023-03-13T01:53:43.996Z,100.00
2023-03-13T01:56:18.063Z,100.00
2023-03-13T01:58:45.078Z,100.00
2023-03-13T02:01:12.865Z,100.00
2023-03-13T02:03:39.294Z,100.00
2023-03-13T02:06:07.231Z,100.00
2023-03-13T02:08:39.788Z,100.00
2023-03-13T02:11:48.749Z,100.00
2023-03-13T02:14:17.208Z,100.00
2023-03-13T02:16:43.654Z,100.00
2023-03-13T02:19:24.643Z,100.00
2023-03-13T02:22:18.624Z,100.00
2023-03-13T02:25:00.182Z,100.00
2023-03-13T02:27:26.682Z,100.00
2023-03-13T02:29:53.255Z,100.00
2023-03-13T02:32:19.929Z,100.00
2023-03-13T02:34:50.507Z,100.00
2023-03-13T02:37:18.267Z,100.00
2023-03-13T02:39:50.114Z,100.00
2023-03-13T02:42:20.198Z,100.00
2023-03-13T02:44:47.656Z,100.00
2023-03-13T02:47:24.513Z,100.00
2023-03-13T02:49:51.412Z,100.00
2023-03-13T02:52:25.886Z,100.00
2023-03-13T02:54:57.468Z,100.00
2023-03-13T02:57:23.780Z,100.00
2023-03-13T02:59:50.245Z,100.00
2023-03-13T03:02:16.625Z,100.00
2023-03-13T03:04:42.995Z,100.00
2023-03-13T03:07:09.319Z,100.00
2023-03-13T03:09:35.657Z,100.00
2023-03-13T03:12:02.020Z,100.00
2023-03-13T03:14:28.394Z,100.00
2023-03-13T03:16:54.735Z,100.00
2023-03-13T03:19:21.167Z,100.00
2023-03-13T03:21:47.599Z,100.00
2023-03-13T03:24:13.930Z,100.00
2023-03-13T03:26:40.258Z,100.00
2023-03-13T03:29:06.719Z,100.00
2023-03-13T03:31:33.259Z,100.00
2023-03-13T03:34:00.097Z,100.00
2023-03-13T03:36:26.698Z,100.00
2023-03-13T03:38:53.045Z,100.00
2023-03-13T03:41:19.693Z,100.00
2023-03-13T03:43:46.828Z,100.00
2023-03-13T03:46:14.695Z,100.00
2023-03-13T03:48:41.620Z,100.00
2023-03-13T03:51:07.964Z,100.00
2023-03-13T03:53:34.410Z,100.00
2023-03-13T03:56:01.402Z,100.00
2023-03-13T03:58:27.855Z,100.00
2023-03-13T04:00:57.366Z,100.00
2023-03-13T04:03:24.623Z,100.00
2023-03-13T04:05:51.071Z,100.00
2023-03-13T04:08:17.418Z,100.00
2023-03-13T04:10:43.795Z,100.00
2023-03-13T04:13:10.202Z,100.00
2023-03-13T04:15:39.101Z,100.00
2023-03-13T04:18:05.642Z,100.00
2023-03-13T04:20:32.176Z,100.00
2023-03-13T04:22:58.584Z,100.00
2023-03-13T04:25:25.012Z,100.00
2023-03-13T04:27:51.539Z,100.00
2023-03-13T04:30:18.786Z,100.00
2023-03-13T04:32:45.329Z,100.00
2023-03-13T04:35:11.870Z,100.00
2023-03-13T04:37:38.350Z,100.00
2023-03-13T04:40:05.309Z,100.00
2023-03-13T04:42:31.657Z,100.00
2023-03-13T04:44:58.017Z,100.00
2023-03-13T04:47:24.352Z,100.00
2023-03-13T04:49:50.676Z,100.00
2023-03-13T04:52:17.028Z,100.00
2023-03-13T04:54:43.361Z,100.00
2023-03-13T04:57:09.716Z,100.00
2023-03-13T04:59:36.080Z,100.00
2023-03-13T05:02:02.471Z,100.00
2023-03-13T05:04:28.822Z,100.00
2023-03-13T05:06:55.106Z,100.00
2023-03-13T05:09:21.440Z,100.00
2023-03-13T05:11:47.766Z,100.00
2023-03-13T05:14:14.094Z,100.00
2023-03-13T05:16:40.439Z,100.00
2023-03-13T05:19:06.787Z,100.00
2023-03-13T05:21:33.136Z,100.00
2023-03-13T05:23:59.500Z,100.00
2023-03-13T05:26:25.897Z,100.00
2023-03-13T05:28:52.262Z,100.00
2023-03-13T05:31:18.713Z,100.00
2023-03-13T05:33:45.112Z,100.00
2023-03-13T05:36:11.555Z,100.00
2023-03-13T05:38:38.032Z,100.00
2023-03-13T05:41:04.763Z,100.00
2023-03-13T05:43:31.112Z,100.00
2023-03-13T05:45:57.616Z,100.00
2023-03-13T05:48:23.992Z,100.00
2023-03-13T05:50:50.338Z,100.00
2023-03-13T05:53:16.726Z,100.00
2023-03-13T05:55:43.776Z,100.00
2023-03-13T05:58:10.203Z,100.00
2023-03-13T06:00:36.606Z,100.00
2023-03-13T06:03:03.108Z,100.00
2023-03-13T06:05:29.547Z,100.00
2023-03-13T06:07:55.910Z,100.00
2023-03-13T06:10:22.319Z,100.00
2023-03-13T06:12:54.528Z,100.00
2023-03-13T06:15:21.238Z,100.00
2023-03-13T06:17:48.016Z,100.00
2023-03-13T06:20:15.279Z,100.00
2023-03-13T06:22:42.176Z,100.00
2023-03-13T06:25:09.587Z,100.00
2023-03-13T06:27:36.233Z,100.00
2023-03-13T06:30:03.263Z,100.00
2023-03-13T06:32:29.843Z,100.00
2023-03-13T06:34:56.355Z,100.00
2023-03-13T06:37:22.790Z,100.00
2023-03-13T06:39:49.143Z,100.00
2023-03-13T06:42:15.586Z,100.00
2023-03-13T06:44:41.957Z,100.00
2023-03-13T06:47:08.518Z,100.00
2023-03-13T06:49:35.732Z,100.00
2023-03-13T06:52:02.135Z,100.00
2023-03-13T06:54:28.515Z,100.00
2023-03-13T06:56:54.853Z,100.00
2023-03-13T06:59:21.271Z,100.00
2023-03-13T07:01:47.568Z,100.00
2023-03-13T07:04:14.415Z,100.00
2023-03-13T07:06:40.852Z,100.00
2023-03-13T07:09:07.290Z,100.00
2023-03-13T07:11:33.717Z,100.00
2023-03-13T07:14:13.670Z,100.00
2023-03-13T07:16:42.904Z,100.00
2023-03-13T07:19:09.259Z,100.00
2023-03-13T07:21:35.562Z,100.00
2023-03-13T07:24:01.931Z,100.00
2023-03-13T07:26:28.307Z,100.00
2023-03-13T07:28:55.985Z,100.00
2023-03-13T07:31:22.353Z,100.00
2023-03-13T07:33:48.740Z,100.00
2023-03-13T07:36:15.983Z,100.00
2023-03-13T07:38:42.574Z,100.00
2023-03-13T07:41:11.951Z,100.00
2023-03-13T07:43:38.334Z,100.00
2023-03-13T07:46:06.975Z,100.00
2023-03-13T07:48:38.471Z,100.00
2023-03-13T07:51:07.843Z,100.00
2023-03-13T07:53:34.898Z,100.00
2023-03-13T07:56:10.742Z,100.00
2023-03-13T07:58:39.497Z,100.00
2023-03-13T08:01:15.495Z,100.00
2023-03-13T08:03:42.504Z,100.00
2023-03-13T08:06:11.485Z,100.00
2023-03-13T08:08:38.734Z,100.00
2023-03-13T08:11:11.930Z,100.00
2023-03-13T08:13:38.903Z,100.00
2023-03-13T08:16:11.613Z,100.00
2023-03-13T08:18:40.481Z,100.00
2023-03-13T08:21:09.239Z,100.00
2023-03-13T08:23:36.112Z,100.00
2023-03-13T08:26:05.162Z,100.00
2023-03-13T08:28:31.541Z,100.00
2023-03-13T08:30:57.915Z,100.00
2023-03-13T08:33:24.478Z,100.00
2023-03-13T08:35:50.850Z,100.00
2023-03-13T08:38:17.255Z,100.00
2023-03-13T08:40:43.564Z,100.00
2023-03-13T08:43:09.889Z,100.00
2023-03-13T08:45:36.246Z,100.00
2023-03-13T08:48:02.592Z,100.00
2023-03-13T08:50:28.931Z,100.00
2023-03-13T08:52:55.303Z,100.00
2023-03-13T08:55:21.660Z,100.00
2023-03-13T08:57:48.026Z,100.00
2023-03-13T09:00:14.912Z,100.00
2023-03-13T09:02:41.324Z,100.00
2023-03-13T09:05:08.098Z,100.00
2023-03-13T09:07:34.396Z,100.00
2023-03-13T09:10:00.746Z,100.00
2023-03-13T09:12:31.131Z,100.00
2023-03-13T09:14:57.928Z,100.00
2023-03-13T09:17:24.338Z,100.00
2023-03-13T09:19:59.737Z,100.00
2023-03-13T09:22:27.183Z,100.00
2023-03-13T09:24:53.570Z,100.00
2023-03-13T09:27:19.940Z,100.00
2023-03-13T09:29:46.276Z,100.00
2023-03-13T09:32:12.606Z,100.00
2023-03-13T09:34:38.979Z,100.00
2023-03-13T09:37:05.350Z,100.00
2023-03-13T09:39:31.707Z,100.00
2023-03-13T09:42:22.919Z,100.00
2023-03-13T09:45:06.010Z,100.00
2023-03-13T09:47:58.741Z,100.00
2023-03-13T09:50:35.150Z,100.00
2023-03-13T09:53:14.519Z,100.00
2023-03-13T09:55:44.578Z,100.00
2023-03-13T09:58:21.821Z,96.13
2023-03-13T10:00:54.302Z,93.59
2023-03-13T10:03:42.336Z,90.73
2023-03-13T10:06:19.650Z,91.40
2023-03-13T10:08:46.088Z,90.11
2023-03-13T10:11:20.597Z,90.20
2023-03-13T10:14:20.820Z,89.80
2023-03-13T10:16:54.890Z,87.74
2023-03-13T10:19:31.206Z,89.20
2023-03-13T10:22:01.438Z,87.73
2023-03-13T10:24:42.276Z,86.56
2023-03-13T10:27:09.379Z,87.47
2023-03-13T10:29:35.696Z,84.36
2023-03-13T10:32:07.773Z,85.36
2023-03-13T10:34:57.335Z,83.66
2023-03-13T10:37:29.479Z,81.19
2023-03-13T10:40:13.149Z,81.11
2023-03-13T10:42:46.132Z,81.41
2023-03-13T10:45:19.134Z,77.50
2023-03-13T10:47:46.105Z,76.40
2023-03-13T10:50:22.009Z,75.16
2023-03-13T10:52:49.957Z,76.95
2023-03-13T10:55:20.618Z,75.66
2023-03-13T10:57:59.040Z,75.65
2023-03-13T11:00:32.919Z,74.61
2023-03-13T11:02:59.783Z,75.81
2023-03-13T11:05:29.900Z,74.78
2023-03-13T11:07:56.407Z,75.75
2023-03-13T11:10:28.093Z,75.67
2023-03-13T11:12:56.817Z,75.80
2023-03-13T11:15:47.372Z,74.22
2023-03-13T11:18:20.585Z,74.18
2023-03-13T11:20:47.175Z,71.22
2023-03-13T11:23:29.854Z,72.70
2023-03-13T11:26:21.028Z,70.01
2023-03-13T11:29:18.056Z,68.24
2023-03-13T11:31:55.986Z,66.88
2023-03-13T11:34:23.981Z,65.69
2023-03-13T11:37:01.449Z,65.32
2023-03-13T11:39:37.346Z,65.05
2023-03-13T11:42:18.574Z,66.52
2023-03-13T11:45:08.184Z,65.90
2023-03-13T11:48:04.915Z,64.67
2023-03-13T11:50:35.676Z,64.93
2023-03-13T11:53:08.157Z,65.67
2023-03-13T11:55:59.819Z,65.12
2023-03-13T11:58:38.226Z,65.67
2023-03-13T12:01:16.238Z,65.97
2023-03-13T12:04:03.855Z,65.58
2023-03-13T12:06:33.852Z,67.57
2023-03-13T12:09:03.017Z,66.72
2023-03-13T12:11:36.473Z,68.25
2023-03-13T12:14:09.671Z,69.36
2023-03-13T12:16:45.869Z,68.82
2023-03-13T12:19:17.730Z,69.91
2023-03-13T12:21:52.217Z,69.82
2023-03-13T12:24:46.733Z,69.66
2023-03-13T12:27:30.357Z,69.48
2023-03-13T12:30:05.218Z,72.13
2023-03-13T12:32:39.761Z,71.48
2023-03-13T12:35:28.692Z,68.04
2023-03-13T12:38:04.842Z,67.50
2023-03-13T12:40:39.911Z,63.43
2023-03-13T12:43:19.460Z,64.05
2023-03-13T12:45:52.649Z,62.66
2023-03-13T12:48:48.982Z,63.82
2023-03-13T12:51:40.964Z,63.80
2023-03-13T12:54:33.242Z,61.83
2023-03-13T12:57:43.111Z,57.37
2023-03-13T13:00:22.997Z,58.18
2023-03-13T13:03:25.851Z,59.06
2023-03-13T13:06:11.200Z,59.68
2023-03-13T13:08:40.788Z,60.73
2023-03-13T13:11:40.679Z,60.94
2023-03-13T13:14:15.910Z,62.27
2023-03-13T13:16:51.757Z,61.01
2023-03-13T13:19:41.152Z,62.34
2023-03-13T13:22:35.370Z,62.02
2023-03-13T13:25:22.157Z,63.04
2023-03-13T13:27:49.177Z,64.13
2023-03-13T13:30:18.544Z,63.09
2023-03-13T13:32:50.147Z,63.59
2023-03-13T13:35:22.308Z,61.73
2023-03-13T13:37:49.697Z,63.49
2023-03-13T13:40:16.195Z,62.74
2023-03-13T13:42:51.773Z,63.30
2023-03-13T13:45:18.058Z,63.82
2023-03-13T13:47:49.460Z,64.17
2023-03-13T13:50:27.786Z,62.86
2023-03-13T13:53:30.957Z,63.89
2023-03-13T13:55:57.320Z,64.62
2023-03-13T13:58:28.222Z,64.14
2023-03-13T14:00:59.945Z,64.40
2023-03-13T14:03:29.050Z,64.77
2023-03-13T14:06:01.948Z,65.73
2023-03-13T14:08:33.645Z,64.96
2023-03-13T14:11:22.632Z,63.80
2023-03-13T14:14:11.234Z,65.69
2023-03-13T14:16:38.857Z,65.74
2023-03-13T14:19:05.290Z,64.26
2023-03-13T14:21:32.682Z,64.92
2023-03-13T14:23:59.028Z,62.47
2023-03-13T14:26:27.875Z,61.60
2023-03-13T14:28:55.855Z,58.21
2023-03-13T14:31:31.451Z,58.90
2023-03-13T14:33:59.949Z,59.39
2023-03-13T14:36:27.198Z,60.06
2023-03-13T14:38:55.859Z,59.99
2023-03-13T14:41:41.529Z,59.55
2023-03-13T14:44:25.719Z,60.82
2023-03-13T14:46:58.329Z,60.78
2023-03-13T14:49:27.538Z,61.90
2023-03-13T14:52:03.986Z,60.90
2023-03-13T14:54:33.914Z,61.31
2023-03-13T14:57:13.301Z,61.76
2023-03-13T14:59:39.739Z,62.48
2023-03-13T15:02:28.978Z,63.13
2023-03-13T15:04:56.496Z,64.02
2023-03-13T15:07:23.531Z,63.10
2023-03-13T15:09:50.416Z,62.89
2023-03-13T15:12:22.531Z,63.55
2023-03-13T15:14:51.216Z,63.50
2023-03-13T15:17:26.040Z,64.49
2023-03-13T15:19:55.201Z,64.53
2023-03-13T15:22:27.983Z,64.06
2023-03-13T15:25:05.574Z,63.73
2023-03-13T15:27:32.798Z,63.54
2023-03-13T15:29:59.171Z,63.97
2023-03-13T15:32:29.060Z,63.50
2023-03-13T15:34:56.436Z,64.52
2023-03-13T15:37:22.822Z,64.25
2023-03-13T15:39:49.178Z,65.21
2023-03-13T15:42:15.529Z,64.71
2023-03-13T15:44:41.967Z,64.47
2023-03-13T15:47:17.375Z,64.58
2023-03-13T15:49:44.118Z,65.35
2023-03-13T15:52:19.298Z,65.84
2023-03-13T15:54:46.390Z,66.13
2023-03-13T15:57:15.508Z,66.01
2023-03-13T15:59:41.924Z,66.17
2023-03-13T16:02:17.559Z,65.25
2023-03-13T16:04:45.095Z,65.83
2023-03-13T16:07:13.608Z,66.30
2023-03-13T16:09:41.648Z,66.64
2023-03-13T16:12:08.561Z,66.72
2023-03-13T16:14:35.924Z,67.15
2023-03-13T16:17:03.899Z,66.72
2023-03-13T16:19:30.555Z,67.25
2023-03-13T16:21:56.898Z,67.96
2023-03-13T16:24:23.257Z,67.50
2023-03-13T16:26:49.662Z,68.33
2023-03-13T16:29:16.463Z,69.21
2023-03-13T16:31:42.990Z,69.20
2023-03-13T16:34:09.325Z,69.87
2023-03-13T16:36:36.429Z,69.89
2023-03-13T16:39:07.483Z,70.51
2023-03-13T16:41:33.844Z,70.21
2023-03-13T16:44:00.266Z,69.89
2023-03-13T16:46:35.313Z,70.71
2023-03-13T16:49:01.963Z,70.84
2023-03-13T16:51:28.999Z,70.88
2023-03-13T16:53:57.341Z,71.29
2023-03-13T16:56:28.761Z,71.49
2023-03-13T16:58:55.672Z,71.22
2023-03-13T17:01:23.594Z,71.88
2023-03-13T17:03:49.982Z,71.87
2023-03-13T17:06:20.594Z,72.26
2023-03-13T17:08:47.593Z,72.32
2023-03-13T17:11:17.945Z,72.44
2023-03-13T17:13:46.375Z,72.76
2023-03-13T17:16:15.474Z,72.65
2023-03-13T17:18:43.464Z,72.98
2023-03-13T17:21:12.414Z,73.54
2023-03-13T17:23:38.834Z,74.53
2023-03-13T17:26:14.758Z,74.67
2023-03-13T17:28:41.835Z,74.43
2023-03-13T17:31:10.230Z,75.07
2023-03-13T17:33:36.889Z,75.18
2023-03-13T17:36:19.940Z,75.52
2023-03-13T17:38:47.912Z,75.95
2023-03-13T17:41:16.851Z,76.20
2023-03-13T17:43:43.330Z,76.72
2023-03-13T17:46:43.069Z,76.80
2023-03-13T17:49:12.815Z,77.83
2023-03-13T17:51:39.172Z,78.01
2023-03-13T17:54:05.566Z,77.89
2023-03-13T17:56:34.407Z,78.40
2023-03-13T17:59:00.922Z,78.52
2023-03-13T18:01:30.088Z,78.74
2023-03-13T18:03:57.190Z,79.04
2023-03-13T18:06:32.223Z,79.21
2023-03-13T18:09:01.090Z,79.47
2023-03-13T18:11:27.557Z,79.28
2023-03-13T18:13:54.700Z,79.64
2023-03-13T18:16:45.382Z,79.95
2023-03-13T18:19:26.166Z,80.29
2023-03-13T18:21:54.646Z,80.29
2023-03-13T18:24:21.631Z,80.70
2023-03-13T18:26:49.364Z,81.15
2023-03-13T18:29:21.630Z,81.44
2023-03-13T18:31:48.087Z,81.74
2023-03-13T18:34:14.480Z,81.66
2023-03-13T18:36:40.932Z,81.93
2023-03-13T18:39:07.298Z,82.85
2023-03-13T18:41:34.428Z,82.32
2023-03-13T18:44:00.779Z,82.38
2023-03-13T18:46:29.769Z,82.44
2023-03-13T18:48:57.039Z,82.61
2023-03-13T18:51:25.211Z,82.79
2023-03-13T18:53:52.673Z,82.73
2023-03-13T18:56:24.967Z,83.33
2023-03-13T18:58:53.485Z,83.55
2023-03-13T19:01:22.859Z,83.66
2023-03-13T19:03:49.800Z,84.01
2023-03-13T19:06:28.515Z,85.11
2023-03-13T19:09:01.038Z,84.78
2023-03-13T19:11:31.137Z,84.74
2023-03-13T19:13:58.165Z,84.94
2023-03-13T19:16:30.800Z,84.93
2023-03-13T19:18:58.344Z,85.28
2023-03-13T19:21:27.009Z,85.32
2023-03-13T19:23:54.173Z,86.42
2023-03-13T19:26:26.341Z,86.86
2023-03-13T19:28:52.636Z,88.50
2023-03-13T19:31:19.072Z,87.56
2023-03-13T19:33:45.756Z,88.46
2023-03-13T19:36:14.834Z,88.41
2023-03-13T19:38:41.718Z,89.06
2023-03-13T19:41:09.438Z,88.77
2023-03-13T19:43:36.745Z,89.18
2023-03-13T19:46:21.773Z,89.60
2023-03-13T19:48:49.412Z,89.61
2023-03-13T19:51:15.765Z,89.09
2023-03-13T19:53:42.462Z,89.26
2023-03-13T19:56:16.909Z,89.39
2023-03-13T19:58:47.819Z,89.14
2023-03-13T20:01:17.488Z,88.96
2023-03-13T20:03:45.452Z,88.88
2023-03-13T20:06:24.811Z,89.18
2023-03-13T20:08:56.261Z,89.11
2023-03-13T20:11:23.166Z,89.29
2023-03-13T20:13:49.631Z,88.92
2023-03-13T20:16:16.489Z,89.16
2023-03-13T20:18:43.242Z,89.58
2023-03-13T20:21:10.492Z,89.95
2023-03-13T20:23:36.867Z,89.53
2023-03-13T20:26:08.464Z,89.36
2023-03-13T20:28:36.032Z,90.65
2023-03-13T20:31:02.766Z,90.05
2023-03-13T20:33:29.869Z,90.14
2023-03-13T20:35:58.721Z,90.13
2023-03-13T20:38:25.104Z,90.71
2023-03-13T20:40:53.468Z,91.45
2023-03-13T20:43:19.922Z,91.76
2023-03-13T20:45:46.342Z,91.25
2023-03-13T20:48:12.794Z,91.71
2023-03-13T20:50:39.147Z,91.66
2023-03-13T20:53:05.479Z,91.58
2023-03-13T20:55:31.895Z,91.11
2023-03-13T20:57:58.794Z,90.61
2023-03-13T21:00:25.779Z,90.21
2023-03-13T21:02:52.260Z,90.35
2023-03-13T21:05:18.616Z,90.66
2023-03-13T21:07:44.963Z,91.07
2023-03-13T21:10:11.901Z,91.08
2023-03-13T21:12:38.285Z,91.41
2023-03-13T21:15:06.250Z,91.09
2023-03-13T21:17:32.860Z,91.11
2023-03-13T21:19:59.217Z,91.22
2023-03-13T21:22:26.605Z,90.84
2023-03-13T21:24:53.030Z,90.86
2023-03-13T21:27:19.428Z,91.46
2023-03-13T21:29:45.959Z,90.95
2023-03-13T21:32:13.074Z,90.87
2023-03-13T21:34:39.421Z,89.88
2023-03-13T21:37:05.808Z,89.23
2023-03-13T21:39:32.202Z,88.35
2023-03-13T21:41:58.563Z,87.77
2023-03-13T21:44:27.062Z,87.24
2023-03-13T21:46:53.808Z,87.21
2023-03-13T21:49:20.324Z,87.21
2023-03-13T21:51:46.698Z,87.26
2023-03-13T21:54:13.082Z,87.08
2023-03-13T21:56:39.402Z,86.83
2023-03-13T21:59:05.840Z,86.33
2023-03-13T22:01:32.209Z,85.90
2023-03-13T22:03:58.708Z,85.16
2023-03-13T22:06:25.140Z,85.17
2023-03-13T22:08:51.575Z,85.43
2023-03-13T22:11:18.448Z,85.49
2023-03-13T22:13:44.825Z,85.63
2023-03-13T22:16:11.772Z,85.66
2023-03-13T22:18:38.568Z,85.69
2023-03-13T22:21:05.421Z,85.99
2023-03-13T22:23:32.147Z,85.86
2023-03-13T22:25:59.434Z,86.53
2023-03-13T22:28:26.528Z,85.78
2023-03-13T22:30:52.902Z,85.23
2023-03-13T22:33:19.713Z,84.84
2023-03-13T22:35:50.643Z,84.53
2023-03-13T22:38:17.037Z,84.01
2023-03-13T22:40:43.393Z,83.58
2023-03-13T22:43:09.762Z,82.92
2023-03-13T22:45:36.074Z,82.48
2023-03-13T22:48:02.641Z,82.57
2023-03-13T22:50:29.051Z,82.51
2023-03-13T22:52:55.414Z,82.15
2023-03-13T22:55:21.742Z,81.89
2023-03-13T22:57:48.120Z,82.91
2023-03-13T23:00:15.093Z,83.44
2023-03-13T23:02:41.439Z,84.03
2023-03-13T23:05:08.241Z,84.17
2023-03-13T23:07:34.649Z,85.11
2023-03-13T23:10:01.052Z,85.85
2023-03-13T23:12:27.476Z,86.69
2023-03-13T23:14:53.922Z,87.35
2023-03-13T23:17:20.452Z,87.93
2023-03-13T23:19:47.024Z,88.54
2023-03-13T23:22:13.370Z,89.67
2023-03-13T23:24:39.739Z,91.02
2023-03-13T23:27:06.127Z,92.46
2023-03-13T23:29:32.502Z,93.48
2023-03-13T23:31:58.910Z,94.21
2023-03-13T23:34:25.305Z,95.79
2023-03-13T23:36:51.693Z,97.28
2023-03-13T23:39:18.207Z,96.73
2023-03-13T23:41:44.596Z,97.28
2023-03-13T23:44:10.969Z,96.90
2023-03-13T23:46:37.377Z,97.26
2023-03-13T23:49:03.723Z,97.39
2023-03-13T23:51:30.109Z,96.70
2023-03-13T23:53:56.540Z,96.44
2023-03-13T23:56:23.085Z,96.22
2023-03-13T23:58:49.501Z,96.24
